createdAt,value
2022-09-07T01:01:40.722Z,19.86
2022-09-07T01:10:14.790Z,17.37
2022-09-07T01:12:42.685Z,17.29
2022-09-07T01:15:11.834Z,17.28
2022-09-07T01:18:02.447Z,17.24
2022-09-07T01:20:49.677Z,17.43
2022-09-07T01:23:57.128Z,17.32
2022-09-07T01:27:01.305Z,17.49
2022-09-07T01:29:36.376Z,17.72
2022-09-07T01:32:13.765Z,17.77
2022-09-07T01:34:50.959Z,17.72
2022-09-07T01:37:26.267Z,17.70
2022-09-07T01:40:02.092Z,17.64
2022-09-07T01:42:34.870Z,17.74
2022-09-07T01:45:13.561Z,17.99
2022-09-07T01:47:45.936Z,18.24
2022-09-07T01:50:21.200Z,18.34
2022-09-07T01:52:53.954Z,18.27
2022-09-07T01:55:30.223Z,17.98
2022-09-07T01:58:04.421Z,18.28
2022-09-07T02:00:39.966Z,18.58
2022-09-07T02:03:14.199Z,18.54
2022-09-07T02:05:47.449Z,17.92
2022-09-07T02:08:19.599Z,18.25
2022-09-07T02:10:53.233Z,18.55
2022-09-07T02:13:24.716Z,18.82
2022-09-07T02:16:01.388Z,18.84
2022-09-07T02:18:37.351Z,18.69
2022-09-07T02:21:09.990Z,18.34
2022-09-07T02:23:42.599Z,18.07
2022-09-07T02:26:17.093Z,18.23
2022-09-07T02:28:45.395Z,18.38
2022-09-07T02:31:15.224Z,18.42
2022-09-07T02:33:43.959Z,18.45
2022-09-07T02:36:15.024Z,18.49
2022-09-07T02:38:42.928Z,18.52
2022-09-07T02:41:33.637Z,18.35
2022-09-07T02:44:04.796Z,18.13
2022-09-07T02:46:48.827Z,18.05
2022-09-07T02:49:31.058Z,18.07
2022-09-07T02:52:09.359Z,18.09
2022-09-07T02:54:52.505Z,17.95
2022-09-07T02:57:33.230Z,17.99
2022-09-07T03:00:10.529Z,18.10
2022-09-07T03:02:51.262Z,18.15
2022-09-07T03:05:23.905Z,18.23
2022-09-07T03:07:57.950Z,18.30
2022-09-07T03:10:26.150Z,18.35
2022-09-07T03:12:54.344Z,18.32
2022-09-07T03:15:25.339Z,18.38
2022-09-07T03:17:54.868Z,18.43
2022-09-07T03:20:24.277Z,18.49
2022-09-07T03:22:53.209Z,17.94
2022-09-07T03:25:22.944Z,17.73
2022-09-07T03:27:51.029Z,17.67
2022-09-07T03:30:19.023Z,17.68
2022-09-07T03:32:47.745Z,17.85
2022-09-07T03:35:17.770Z,17.81
2022-09-07T03:37:46.078Z,18.01
2022-09-07T03:40:16.418Z,18.48
2022-09-07T03:42:44.858Z,18.75
2022-09-07T03:45:13.417Z,18.91
2022-09-07T03:47:41.454Z,19.05
2022-09-07T03:50:11.203Z,19.05
2022-09-07T03:52:40.694Z,19.01
2022-09-07T03:55:10.386Z,18.73
2022-09-07T03:57:40.319Z,18.18
2022-09-07T04:00:09.354Z,18.24
2022-09-07T04:02:43.721Z,18.50
2022-09-07T04:05:12.015Z,18.15
2022-09-07T04:07:43.249Z,18.11
2022-09-07T04:10:19.494Z,18.27
2022-09-07T04:12:47.343Z,17.93
2022-09-07T04:15:16.408Z,17.57
2022-09-07T04:17:46.521Z,17.69
2022-09-07T04:20:15.030Z,17.77
2022-09-07T04:22:44.957Z,17.72
2022-09-07T04:25:13.433Z,18.08
2022-09-07T04:27:41.699Z,17.82
2022-09-07T04:30:11.079Z,17.99
2022-09-07T04:32:39.399Z,18.29
2022-09-07T04:35:09.357Z,18.45
2022-09-07T04:37:37.829Z,18.49
2022-09-07T04:40:08.022Z,18.54
2022-09-07T04:42:36.641Z,17.87
2022-09-07T04:45:05.291Z,17.74
2022-09-07T04:47:33.405Z,17.94
2022-09-07T04:50:01.525Z,17.75
2022-09-07T04:52:29.609Z,17.53
2022-09-07T04:54:58.019Z,17.33
2022-09-07T05:01:29.667Z,17.87
2022-09-07T05:07:48.190Z,17.31
2022-09-07T05:10:16.159Z,17.62
2022-09-07T05:12:44.367Z,17.81
2022-09-07T05:15:12.489Z,17.94
2022-09-07T05:17:42.133Z,18.02
2022-09-07T05:20:10.738Z,18.00
2022-09-07T05:22:41.195Z,18.04
2022-09-07T05:25:10.039Z,18.18
2022-09-07T05:27:38.873Z,18.31
2022-09-07T05:30:08.213Z,18.17
2022-09-07T05:32:36.183Z,18.20
2022-09-07T05:35:06.140Z,18.07
2022-09-07T05:37:36.737Z,17.89
2022-09-07T05:40:06.141Z,18.07
2022-09-07T05:42:36.316Z,18.16
2022-09-07T05:45:04.838Z,18.33
2022-09-07T05:47:33.487Z,18.64
2022-09-07T05:50:02.896Z,19.07
2022-09-07T05:52:32.413Z,19.31
2022-09-07T05:55:19.341Z,19.46
2022-09-07T05:57:48.709Z,19.73
2022-09-07T06:00:16.819Z,20.03
2022-09-07T06:02:45.067Z,20.31
2022-09-07T06:05:13.192Z,20.42
2022-09-07T06:07:42.637Z,20.53
2022-09-07T06:12:58.936Z,20.24
2022-09-07T06:15:27.323Z,20.67
2022-09-07T06:17:55.224Z,21.03
2022-09-07T06:20:23.399Z,21.31
2022-09-07T06:22:53.099Z,21.42
2022-09-07T06:25:20.933Z,21.78
2022-09-07T06:27:50.477Z,21.98
2022-09-07T06:30:19.079Z,22.11
2022-09-07T06:32:49.623Z,22.16
2022-09-07T06:35:17.813Z,22.17
2022-09-07T06:37:47.313Z,22.44
2022-09-07T06:40:17.362Z,22.85
2022-09-07T06:42:45.343Z,22.92
2022-09-07T06:45:16.844Z,23.04
2022-09-07T06:47:44.786Z,23.22
2022-09-07T06:50:13.058Z,23.37
2022-09-07T06:55:31.564Z,23.10
2022-09-07T06:57:59.880Z,23.16
2022-09-07T07:00:27.716Z,22.12
2022-09-07T07:02:56.073Z,22.41
2022-09-07T07:05:23.823Z,21.64
2022-09-07T07:07:52.089Z,21.24
2022-09-07T07:10:24.515Z,21.45
2022-09-07T07:12:58.298Z,22.53
2022-09-07T07:15:28.929Z,23.64
2022-09-07T07:18:05.188Z,24.58
2022-09-07T07:20:37.666Z,25.50
2022-09-07T07:23:06.412Z,26.38
2022-09-07T07:25:35.389Z,27.44
2022-09-07T07:30:56.811Z,27.91
2022-09-07T07:33:25.610Z,26.69
2022-09-07T07:35:53.649Z,25.81
2022-09-07T07:44:06.745Z,27.07
2022-09-07T07:46:34.790Z,27.38
2022-09-07T07:49:02.938Z,28.35
2022-09-07T07:51:31.770Z,28.55
2022-09-07T07:54:19.375Z,27.17
2022-09-07T07:56:47.100Z,26.88
2022-09-07T07:59:16.372Z,27.09
2022-09-07T08:01:44.881Z,27.03
2022-09-07T08:04:14.998Z,27.36
2022-09-07T08:06:44.524Z,26.49
2022-09-07T08:09:13.220Z,27.11
2022-09-07T08:11:42.344Z,27.40
2022-09-07T08:14:10.227Z,27.70
2022-09-07T08:16:39.475Z,27.47
2022-09-07T08:19:07.623Z,27.98
2022-09-07T08:21:35.634Z,27.41
2022-09-07T08:24:04.893Z,28.00
2022-09-07T08:26:33.478Z,28.94
2022-09-07T08:29:01.674Z,28.39
2022-09-07T08:31:30.109Z,27.99
2022-09-07T08:34:00.772Z,28.77
2022-09-07T08:36:31.788Z,28.55
2022-09-07T08:39:00.058Z,28.64
2022-09-07T08:41:49.734Z,28.33
2022-09-07T08:44:24.108Z,28.25
2022-09-07T08:46:57.803Z,28.10
2022-09-07T08:49:36.543Z,28.54
2022-09-07T08:52:10.637Z,28.75
2022-09-07T08:54:41.042Z,28.99
2022-09-07T08:57:25.244Z,28.96
2022-09-07T08:59:59.033Z,28.85
2022-09-07T09:02:28.193Z,28.98
2022-09-07T09:07:55.194Z,29.12
2022-09-07T09:10:30.335Z,29.69
2022-09-07T09:13:06.004Z,30.29
2022-09-07T09:15:59.679Z,30.78
2022-09-07T09:18:43.057Z,31.66
2022-09-07T09:21:16.043Z,31.13
2022-09-07T09:23:47.578Z,31.96
2022-09-07T09:26:21.289Z,32.34
2022-09-07T09:28:50.410Z,30.45
2022-09-07T09:31:20.685Z,29.49
2022-09-07T09:34:10.553Z,30.31
2022-09-07T09:36:46.221Z,31.18
2022-09-07T09:39:34.798Z,31.99
2022-09-07T09:42:16.361Z,32.28
2022-09-07T09:44:45.683Z,32.15
2022-09-07T09:47:31.223Z,32.33
2022-09-07T09:50:02.453Z,31.39
2022-09-07T09:52:45.169Z,32.09
2022-09-07T09:55:35.783Z,32.89
2022-09-07T10:03:59.598Z,34.33
2022-09-07T10:06:29.399Z,34.65
2022-09-07T10:09:06.183Z,32.01
2022-09-07T10:14:34.180Z,35.78
2022-09-07T10:17:11.104Z,35.90
2022-09-07T10:19:41.114Z,35.01
2022-09-07T10:22:23.695Z,33.95
2022-09-07T10:24:53.207Z,30.79
2022-09-07T10:27:29.273Z,26.75
2022-09-07T10:29:57.348Z,26.27
2022-09-07T10:32:38.188Z,26.32
2022-09-07T10:35:14.682Z,26.43
2022-09-07T10:37:52.605Z,29.68
2022-09-07T10:40:30.326Z,29.67
2022-09-07T10:43:24.776Z,31.51
2022-09-07T10:46:11.901Z,31.42
2022-09-07T10:48:48.310Z,31.43
2022-09-07T10:51:19.130Z,32.26
2022-09-07T10:56:53.476Z,32.10
2022-09-07T11:02:36.336Z,33.12
2022-09-07T11:05:19.203Z,36.98
2022-09-07T11:08:02.438Z,34.74
2022-09-07T11:10:36.617Z,31.28
2022-09-07T11:13:09.424Z,30.15
2022-09-07T11:15:44.139Z,32.62
2022-09-07T11:18:19.126Z,34.02
2022-09-07T11:20:55.187Z,38.07
2022-09-07T11:26:32.563Z,35.93
2022-09-07T11:32:03.625Z,34.48
2022-09-07T11:34:38.051Z,39.08
2022-09-07T11:37:10.862Z,40.90
2022-09-07T11:39:46.186Z,42.27
2022-09-07T11:45:17.251Z,38.83
2022-09-07T11:47:50.459Z,37.36
2022-09-07T11:50:20.195Z,36.66
2022-09-07T11:52:55.021Z,37.51
2022-09-07T11:55:27.489Z,41.25
2022-09-07T11:58:20.747Z,41.44
2022-09-07T12:01:03.807Z,39.10
2022-09-07T12:03:51.960Z,42.28
2022-09-07T12:06:44.915Z,41.52
2022-09-07T12:09:27.885Z,43.74
2022-09-07T12:12:21.866Z,44.40
2022-09-07T12:15:03.814Z,44.12
2022-09-07T12:17:59.918Z,45.81
2022-09-07T12:20:39.278Z,47.58
2022-09-07T12:23:20.998Z,47.35
2022-09-07T12:25:51.237Z,47.68
2022-09-07T12:28:57.847Z,46.36
2022-09-07T12:31:57.401Z,46.77
2022-09-07T12:34:53.667Z,46.74
2022-09-07T12:37:40.772Z,45.30
2022-09-07T12:40:58.006Z,40.77
2022-09-07T12:43:46.513Z,40.96
2022-09-07T12:46:49.987Z,43.75
2022-09-07T12:49:23.829Z,45.14
2022-09-07T12:52:02.056Z,46.31
2022-09-07T12:54:43.092Z,47.97
2022-09-07T12:57:29.935Z,48.20
2022-09-07T13:09:34.132Z,42.68
2022-09-07T13:12:07.202Z,40.34
2022-09-07T13:14:39.777Z,34.61
2022-09-07T13:17:44.373Z,34.63
2022-09-07T13:20:34.785Z,34.31
2022-09-07T13:23:25.817Z,34.88
2022-09-07T13:25:58.980Z,35.48
2022-09-07T13:28:32.769Z,35.58
2022-09-07T13:31:08.850Z,34.75
2022-09-07T13:33:50.825Z,34.97
2022-09-07T13:36:26.631Z,35.82
2022-09-07T13:38:56.190Z,37.42
2022-09-07T13:41:30.746Z,39.92
2022-09-07T13:44:02.870Z,41.06
2022-09-07T13:46:44.340Z,36.47
2022-09-07T13:49:22.900Z,33.17
2022-09-07T13:51:58.406Z,32.36
2022-09-07T13:54:37.813Z,33.12
2022-09-07T14:26:27.653Z,37.01
2022-09-07T14:38:13.068Z,34.01
2022-09-07T14:40:41.283Z,31.77
2022-09-07T14:43:33.665Z,32.06
2022-09-07T14:46:18.385Z,33.97
2022-09-07T14:48:49.189Z,33.29
2022-09-07T14:51:34.758Z,31.34
2022-09-07T14:54:06.649Z,30.75
2022-09-07T14:56:36.898Z,29.48
2022-09-07T14:59:29.558Z,29.15
2022-09-07T15:02:33.729Z,28.31
2022-09-07T15:05:31.824Z,28.01
2022-09-07T15:08:01.573Z,27.77
2022-09-07T15:10:35.338Z,27.27
2022-09-07T15:13:05.726Z,27.18
2022-09-07T15:15:37.548Z,27.04
2022-09-07T15:18:27.918Z,26.99
2022-09-07T15:20:56.501Z,27.80
2022-09-07T15:23:24.502Z,28.55
2022-09-07T15:25:54.170Z,28.71
2022-09-07T15:34:10.260Z,27.44
2022-09-07T15:36:40.826Z,27.52
2022-09-07T15:39:17.499Z,28.07
2022-09-07T15:41:46.304Z,28.72
2022-09-07T15:44:15.105Z,28.23
2022-09-07T15:47:42.458Z,28.29
2022-09-07T15:49:34.991Z,28.96
2022-09-07T15:52:05.255Z,29.16
2022-09-07T15:54:35.324Z,29.39
2022-09-07T15:59:53.524Z,28.87
2022-09-07T16:11:05.300Z,28.27
2022-09-07T16:13:34.587Z,27.65
2022-09-07T16:16:05.854Z,27.51
2022-09-07T16:18:36.255Z,27.78
2022-09-07T16:21:11.933Z,27.96
2022-09-07T16:23:42.294Z,27.90
2022-09-07T16:26:11.578Z,27.83
2022-09-07T16:28:41.096Z,27.34
2022-09-07T16:31:14.008Z,27.35
2022-09-07T16:33:43.322Z,27.56
2022-09-07T16:36:14.430Z,27.58
2022-09-07T16:38:44.660Z,27.70
2022-09-07T16:41:14.601Z,27.80
2022-09-07T16:43:42.559Z,28.30
2022-09-07T16:46:14.065Z,28.57
2022-09-07T16:48:44.399Z,28.85
2022-09-07T16:51:14.633Z,29.13
2022-09-07T16:53:43.046Z,28.99
2022-09-07T16:56:16.854Z,28.51
2022-09-07T16:58:50.052Z,27.92
2022-09-07T17:01:21.560Z,27.77
2022-09-07T17:03:52.050Z,27.66
2022-09-07T17:06:21.811Z,27.57
2022-09-07T17:08:49.890Z,27.38
2022-09-07T17:11:20.292Z,27.18
2022-09-07T17:13:48.924Z,26.98
2022-09-07T17:16:19.820Z,26.88
2022-09-07T17:21:42.532Z,26.72
2022-09-07T17:24:14.746Z,26.47
2022-09-07T17:26:43.177Z,26.37
2022-09-07T17:29:13.127Z,26.11
2022-09-07T17:34:31.250Z,25.84
2022-09-07T17:37:00.611Z,25.76
2022-09-07T17:39:29.166Z,25.81
2022-09-07T17:41:57.806Z,25.83
2022-09-07T17:44:26.330Z,25.71
2022-09-07T17:46:54.468Z,25.70
2022-09-07T17:49:22.918Z,25.74
2022-09-07T17:51:52.294Z,25.41
2022-09-07T17:54:20.359Z,24.96
2022-09-07T17:56:48.232Z,24.57
2022-09-07T18:02:04.521Z,24.16
2022-09-07T18:04:35.759Z,24.32
2022-09-07T18:07:05.172Z,24.17
2022-09-07T18:09:33.066Z,24.00
2022-09-07T18:12:02.027Z,24.00
2022-09-07T18:14:31.188Z,24.06
2022-09-07T18:16:59.307Z,24.01
2022-09-07T18:19:27.498Z,23.96
2022-09-07T18:21:55.698Z,24.10
2022-09-07T18:24:25.632Z,24.22
2022-09-07T18:26:54.591Z,24.29
2022-09-07T18:29:31.380Z,24.33
2022-09-07T18:32:02.161Z,24.40
2022-09-07T18:34:32.536Z,24.48
2022-09-07T18:37:00.792Z,24.63
2022-09-07T18:39:31.469Z,24.77
2022-09-07T18:41:59.625Z,24.87
2022-09-07T18:47:22.214Z,24.97
2022-09-07T18:49:52.689Z,25.04
2022-09-07T18:55:12.882Z,25.00
2022-09-07T18:57:41.270Z,24.86
2022-09-07T19:00:11.741Z,24.72
2022-09-07T19:02:40.415Z,24.55
2022-09-07T19:07:56.820Z,24.21
2022-09-07T19:10:26.765Z,23.56
2022-09-07T19:12:54.840Z,23.45
2022-09-07T19:15:23.753Z,23.50
2022-09-07T19:17:52.172Z,23.64
2022-09-07T19:20:20.290Z,23.85
2022-09-07T19:22:49.139Z,23.95
2022-09-07T19:25:19.498Z,23.90
2022-09-07T19:27:48.932Z,23.80
2022-09-07T19:30:17.529Z,23.59
2022-09-07T19:32:45.666Z,23.41
2022-09-07T19:41:05.225Z,22.66
2022-09-07T19:43:36.887Z,22.43
2022-09-07T19:46:05.330Z,22.24
2022-09-07T19:48:34.135Z,22.20
2022-09-07T19:51:02.981Z,22.14
2022-09-07T19:53:33.886Z,22.10
2022-09-07T19:56:06.944Z,22.07
2022-09-07T19:58:41.052Z,22.01
2022-09-07T20:01:11.411Z,21.97
2022-09-07T20:03:39.613Z,21.99
2022-09-07T20:06:08.788Z,22.01
2022-09-07T20:08:37.078Z,21.99
2022-09-07T20:11:08.370Z,21.99
2022-09-07T20:13:37.991Z,21.96
2022-09-07T20:16:09.210Z,21.97
2022-09-07T20:18:37.942Z,22.00
2022-09-07T20:21:07.122Z,22.00
2022-09-07T20:23:36.374Z,21.91
2022-09-07T20:26:08.195Z,21.86
2022-09-07T20:28:38.589Z,21.96
2022-09-07T20:31:08.543Z,21.99
2022-09-07T20:33:38.168Z,21.92
2022-09-07T20:36:09.822Z,21.87
2022-09-07T20:38:43.342Z,21.82
2022-09-07T20:41:16.612Z,21.85
2022-09-07T20:43:48.118Z,22.00
2022-09-07T20:46:18.576Z,22.04
2022-09-07T20:48:50.205Z,22.02
2022-09-07T20:51:21.216Z,22.03
2022-09-07T20:53:53.995Z,22.06
2022-09-07T20:56:24.054Z,22.07
2022-09-07T21:01:29.686Z,21.96
2022-09-07T21:04:01.804Z,21.78
2022-09-07T21:06:32.276Z,21.58
2022-09-07T21:09:00.930Z,21.32
2022-09-07T21:11:31.654Z,21.18
2022-09-07T21:14:02.995Z,21.10
2022-09-07T21:16:31.890Z,21.08
2022-09-07T21:19:04.305Z,21.05
2022-09-07T21:21:38.843Z,20.87
2022-09-07T21:24:08.611Z,20.89
2022-09-07T21:26:37.701Z,20.86
2022-09-07T21:29:17.189Z,20.76
2022-09-07T21:31:45.753Z,20.62
2022-09-07T21:34:13.828Z,20.52
2022-09-07T21:36:42.543Z,20.39
2022-09-07T21:39:14.673Z,20.44
2022-09-07T21:41:43.700Z,20.44
2022-09-07T21:44:16.858Z,20.43
2022-09-07T21:46:45.737Z,20.56
2022-09-07T21:49:13.998Z,20.68
2022-09-07T21:51:41.916Z,20.67
2022-09-07T21:54:10.520Z,20.67
2022-09-07T21:56:43.149Z,20.61
2022-09-07T21:59:16.560Z,20.38
2022-09-07T22:01:45.158Z,20.16
2022-09-07T22:04:13.704Z,20.17
2022-09-07T22:06:44.193Z,20.27
2022-09-07T22:09:12.380Z,20.27
2022-09-07T22:32:11.545Z,20.88
2022-09-07T22:34:40.051Z,20.82
2022-09-07T22:37:08.426Z,20.58
2022-09-07T22:39:36.613Z,20.31
2022-09-07T22:42:05.473Z,20.26
2022-09-07T22:44:33.815Z,20.34
2022-09-07T22:47:02.515Z,20.45
2022-09-07T22:49:32.153Z,20.43
2022-09-07T22:52:00.160Z,20.41
2022-09-07T22:54:28.534Z,20.40
2022-09-07T22:56:56.524Z,20.45
2022-09-07T22:59:24.979Z,20.48
2022-09-07T23:01:53.224Z,20.60
2022-09-07T23:04:21.549Z,20.52
2022-09-07T23:06:51.052Z,20.44
2022-09-07T23:09:20.834Z,20.46
2022-09-07T23:11:49.282Z,20.50
2022-09-07T23:14:23.901Z,20.57
2022-09-07T23:16:52.049Z,20.55
2022-09-07T23:19:20.888Z,20.59
2022-09-07T23:21:50.625Z,20.56
2022-09-07T23:24:20.352Z,20.53
2022-09-07T23:26:49.278Z,20.48
2022-09-07T23:29:17.578Z,20.52
2022-09-07T23:31:47.085Z,20.55
2022-09-07T23:34:15.453Z,20.53
2022-09-07T23:36:43.375Z,20.61
2022-09-07T23:39:15.435Z,20.77
2022-09-07T23:41:43.639Z,20.96
2022-09-07T23:44:11.826Z,21.07
2022-09-07T23:46:40.018Z,21.15
2022-09-07T23:49:08.073Z,21.15
2022-09-07T23:51:36.124Z,20.70
2022-09-07T23:54:04.123Z,20.63
2022-09-07T23:56:33.382Z,20.52
2022-09-07T23:59:01.557Z,20.32
